Time;durP1;ratioP1;P1;durP2;ratioP2;P2;SDS_P1;SDS_P2;PMS_P1;PMS_P2;Temp;Humidity;BMP_temperature;BMP_pressure;BME280_temperature;BME280_humidity;BME280_pressure;Samples;Min_cycle;Max_cycle;Signal;HPM_P1;HPM_P2
2022/03/17 00:00:32;;;;;;;17.37;9.18;;;;;;;4.70;60.60;100986.03;4361116;32;33947;-83
2022/03/17 00:03:00;;;;;;;15.32;8.90;;;;;;;4.74;60.60;100985.13;4372125;32;34711;-84
2022/03/17 00:05:28;;;;;;;16.20;9.27;;;;;;;4.75;60.81;100988.66;4373310;32;34109;-84
2022/03/17 00:07:56;;;;;;;16.25;9.20;;;;;;;4.46;61.36;100986.03;4385437;32;33714;-83
2022/03/17 00:10:24;;;;;;;17.27;9.38;;;;;;;4.56;61.52;100990.41;4372693;32;33474;-83
2022/03/17 00:12:51;;;;;;;17.40;10.25;;;;;;;4.53;61.29;100996.50;4360859;32;34874;-83
2022/03/17 00:15:19;;;;;;;18.60;9.77;;;;;;;4.41;61.76;100998.22;4372866;32;33651;-83
2022/03/17 00:17:46;;;;;;;19.83;10.80;;;;;;;4.73;60.88;101004.34;4348640;32;33746;-83
2022/03/17 00:20:14;;;;;;;26.83;13.35;;;;;;;4.61;60.94;101006.97;4372756;32;35170;-84
2022/03/17 00:22:42;;;;;;;21.52;12.20;;;;;;;4.55;61.25;101009.56;4373566;32;33792;-83
2022/03/17 00:25:11;;;;;;;21.27;10.68;;;;;;;4.12;62.49;101009.53;4361195;32;33188;-83
2022/03/17 00:27:39;;;;;;;18.40;10.48;;;;;;;4.74;60.34;101005.22;4360455;32;32748;-83
2022/03/17 00:30:07;;;;;;;22.40;8.90;;;;;;;4.94;59.49;100997.31;4372618;32;33928;-83
2022/03/17 00:32:35;;;;;;;14.27;8.85;;;;;;;4.85;59.50;101009.56;4372646;32;33845;-83
2022/03/17 00:37:51;;;;;;;15.68;9.15;;;;;;;4.44;61.20;101016.56;4361752;32;33871;-83
2022/03/17 00:40:20;;;;;;;17.27;9.27;;;;;;;4.28;61.64;101011.31;4385349;32;33643;-83
2022/03/17 00:42:47;;;;;;;14.68;8.77;;;;;;;4.29;61.37;101012.19;4384801;32;34136;-83
2022/03/17 00:45:15;;;;;;;15.85;7.95;;;;;;;4.37;60.87;101015.69;4385342;32;34078;-83
2022/03/17 00:47:43;;;;;;;14.65;9.15;;;;;;;4.31;61.07;101013.91;4360152;32;33756;-84
2022/03/17 00:50:11;;;;;;;10.63;7.32;;;;;;;3.79;63.23;101015.53;4359932;32;34265;-84
2022/03/17 00:52:39;;;;;;;12.02;8.25;;;;;;;3.66;63.78;101009.41;4384816;32;33906;-84
2022/03/17 00:55:07;;;;;;;12.60;8.70;;;;;;;3.87;63.07;101013.81;4372373;32;34761;-85
2022/03/17 00:57:36;;;;;;;19.37;10.02;;;;;;;3.64;63.89;101011.13;4372511;32;32398;-85
2022/03/17 01:00:05;;;;;;;13.88;8.65;;;;;;;4.02;62.97;101016.47;4372422;32;33646;-85
2022/03/17 01:02:34;;;;;;;15.23;9.30;;;;;;;4.45;61.07;101018.28;4347706;32;34690;-85
2022/03/17 01:05:02;;;;;;;14.30;9.35;;;;;;;4.34;61.36;101021.78;4360373;32;33268;-85
2022/03/17 01:07:32;;;;;;;16.20;8.75;;;;;;;4.35;61.00;101023.50;4372424;32;33559;-86
2022/03/17 01:10:00;;;;;;;17.62;8.73;;;;;;;4.56;60.18;101016.56;4384100;32;33774;-86
2022/03/17 01:12:28;;;;;;;13.10;9.10;;;;;;;4.23;61.07;101028.75;4384408;32;33493;-86
2022/03/17 01:14:56;;;;;;;15.15;8.80;;;;;;;4.35;60.99;101023.50;4372183;32;34577;-86
2022/03/17 01:17:24;;;;;;;16.20;9.60;;;;;;;4.49;60.43;101030.50;4372351;32;34426;-86
2022/03/17 01:19:52;;;;;;;14.50;8.82;;;;;;;4.18;61.39;101025.25;4372229;32;33876;-86
2022/03/17 01:22:24;;;;;;;12.52;7.45;;;;;;;4.03;62.39;101033.03;4384238;32;33349;-84
2022/03/17 01:24:52;;;;;;;14.98;8.77;;;;;;;4.24;61.25;101034.84;4372121;32;34334;-82
2022/03/17 01:27:20;;;;;;;18.65;9.05;;;;;;;3.97;61.66;101027.78;4372020;32;33964;-83
2022/03/17 01:29:48;;;;;;;16.60;9.48;;;;;;;3.89;62.20;101027.75;4359554;32;34693;-82
2022/03/17 01:32:16;;;;;;;14.98;9.55;;;;;;;4.09;61.47;101025.22;4347620;32;33928;-82
2022/03/17 01:34:44;;;;;;;13.90;8.93;;;;;;;4.20;60.81;101028.72;4372316;32;34212;-84
2022/03/17 01:37:12;;;;;;;16.87;8.93;;;;;;;3.70;62.26;101024.19;4371409;32;33814;-84
2022/03/17 01:39:39;;;;;;;15.23;8.32;;;;;;;4.16;60.76;101018.25;4384641;32;33460;-84
2022/03/17 01:42:09;;;;;;;14.05;8.57;;;;;;;3.99;61.01;101023.47;4371909;32;33766;-84
2022/03/17 01:44:38;;;;;;;16.65;9.07;;;;;;;4.21;60.24;101024.34;4384429;32;34822;-84
2022/03/17 01:49:57;;;;;;;19.15;9.98;;;;;;;3.98;60.97;101029.53;4380479;32;33609;-84
2022/03/17 01:52:25;;;;;;;15.18;8.93;;;;;;;4.05;60.69;101020.84;4371791;32;33041;-84
2022/03/17 01:54:54;;;;;;;14.80;8.82;;;;;;;4.10;60.32;101025.22;4359672;32;32612;-84
2022/03/17 01:57:22;;;;;;;15.85;9.77;;;;;;;4.23;59.94;101023.50;4347179;32;33436;-84
2022/03/17 01:59:51;;;;;;;14.38;9.52;;;;;;;4.05;60.05;101026.06;4371758;32;33397;-84
2022/03/17 02:02:19;;;;;;;16.20;8.90;;;;;;;3.99;60.05;101032.16;4359563;32;33149;-84
2022/03/17 02:04:48;;;;;;;14.38;10.20;;;;;;;4.36;59.03;101035.72;4373696;32;32552;-84
2022/03/17 02:07:16;;;;;;;15.13;9.45;;;;;;;3.92;60.15;101037.34;4386173;32;34593;-84
2022/03/17 02:09:44;;;;;;;15.75;9.48;;;;;;;3.82;61.21;101034.72;4373309;32;33912;-84
2022/03/17 02:15:04;;;;;;;15.07;9.00;;;;;;;3.27;63.34;101039.66;4371881;32;33814;-84
2022/03/17 02:17:35;;;;;;;15.05;9.82;;;;;;;3.74;61.84;101049.47;4386089;32;33552;-85
2022/03/17 02:20:03;;;;;;;14.85;9.50;;;;;;;3.80;61.64;101049.53;4373693;32;33088;-84
2022/03/17 02:22:31;;;;;;;16.10;8.82;;;;;;;3.53;62.03;101054.63;4373565;32;33924;-83
2022/03/17 02:27:47;;;;;;;16.30;8.23;;;;;;;3.73;61.22;101052.97;4361773;32;34480;-83
2022/03/17 02:30:18;;;;;;;15.95;10.32;;;;;;;3.25;62.79;101058.81;4373768;32;34431;-83
2022/03/17 02:32:46;;;;;;;12.48;8.25;;;;;;;3.40;63.19;101052.81;4373693;32;33060;-85
2022/03/17 02:35:19;;;;;;;16.77;10.15;;;;;;;3.12;62.85;101054.37;4386284;32;33206;-85
2022/03/17 02:37:47;;;;;;;16.65;8.63;;;;;;;3.56;62.20;101062.44;4385438;32;33729;-85
2022/03/17 02:40:15;;;;;;;21.33;10.45;;;;;;;2.97;63.86;101061.22;4373749;32;34734;-85
2022/03/17 02:42:43;;;;;;;15.23;8.73;;;;;;;2.91;64.42;101071.63;4386137;32;33779;-85
2022/03/17 02:45:11;;;;;;;14.80;8.98;;;;;;;3.45;62.97;101069.38;4385273;32;32971;-85
2022/03/17 02:47:41;;;;;;;17.15;9.57;;;;;;;3.59;62.01;101070.31;4386150;32;33999;-85
2022/03/17 02:50:12;;;;;;;19.17;9.82;;;;;;;3.40;62.22;101071.94;4373267;32;34690;-85
2022/03/17 02:52:41;;;;;;;15.48;9.68;;;;;;;3.59;61.57;101081.63;4385683;32;34056;-85
2022/03/17 02:55:11;;;;;;;16.12;9.15;;;;;;;3.39;62.08;101085.00;4373568;32;33563;-84
2022/03/17 02:57:39;;;;;;;15.18;9.45;;;;;;;3.46;61.76;101087.63;4361503;32;33360;-84
2022/03/17 03:00:10;;;;;;;16.80;10.75;;;;;;;3.32;61.97;101086.69;4385619;32;34443;-84
2022/03/17 03:02:38;;;;;;;17.80;10.65;;;;;;;3.03;63.29;101102.13;4385510;32;34348;-84
2022/03/17 03:05:06;;;;;;;21.75;10.52;;;;;;;2.90;63.62;101095.97;4384125;32;33014;-85
2022/03/17 03:07:36;;;;;;;16.42;10.70;;;;;;;3.40;62.25;101095.44;4373397;32;34521;-86
2022/03/17 03:10:05;;;;;;;19.92;10.52;;;;;;;3.38;62.17;101096.31;4385886;32;33889;-85
2022/03/17 03:12:32;;;;;;;17.40;9.60;;;;;;;3.40;61.93;101105.03;4372640;32;33780;-85
2022/03/17 03:15:01;;;;;;;18.42;10.38;;;;;;;3.60;61.31;101099.03;4373276;32;33285;-85
2022/03/17 03:17:29;;;;;;;19.75;10.68;;;;;;;3.42;61.97;101103.28;4373587;32;33457;-85
2022/03/17 03:19:57;;;;;;;17.55;11.10;;;;;;;3.65;61.13;101108.63;4373848;32;33154;-85
2022/03/17 03:22:29;;;;;;;20.05;10.73;;;;;;;3.71;60.62;101101.72;4373194;32;32791;-85
2022/03/17 03:24:57;;;;;;;24.50;12.18;;;;;;;3.74;60.56;101095.63;4362076;32;33746;-84
2022/03/17 03:27:27;;;;;;;17.55;10.45;;;;;;;3.68;60.88;101088.63;4385551;32;34648;-85
2022/03/17 03:29:56;;;;;;;17.17;9.25;;;;;;;3.52;60.75;101097.28;4384001;32;32172;-85
2022/03/17 03:32:26;;;;;;;20.75;11.40;;;;;;;3.33;61.26;101088.44;4385935;32;33963;-83
2022/03/17 03:34:54;;;;;;;25.33;11.65;;;;;;;3.52;60.92;101089.44;4373212;32;34603;-84
2022/03/17 03:37:25;;;;;;;26.37;11.75;;;;;;;3.53;60.72;101089.44;4385717;32;33669;-83
2022/03/17 03:39:56;;;;;;;21.85;11.18;;;;;;;3.47;61.25;101101.59;4384963;32;32393;-84
2022/03/17 03:42:25;;;;;;;19.30;10.77;;;;;;;2.63;63.67;101111.37;4373362;32;33725;-85
2022/03/17 03:44:52;;;;;;;20.08;11.12;;;;;;;3.19;62.66;101109.25;4373358;32;34870;-83
2022/03/17 03:47:21;;;;;;;24.40;11.88;;;;;;;3.62;61.16;101106.03;4373259;32;33745;-83
2022/03/17 03:49:51;;;;;;;18.25;10.68;;;;;;;3.55;61.14;101102.50;4373082;32;34455;-83
2022/03/17 03:52:19;;;;;;;25.12;11.43;;;;;;;3.67;60.59;101101.72;4372926;32;34239;-83
2022/03/17 03:54:47;;;;;;;23.55;12.85;;;;;;;3.39;61.37;101098.94;4385642;32;33415;-84
2022/03/17 03:57:14;;;;;;;17.42;11.00;;;;;;;3.52;61.07;101107.72;4373190;32;34550;-84
2022/03/17 03:59:42;;;;;;;25.25;10.57;;;;;;;3.62;60.81;101111.25;4373404;32;33234;-83
2022/03/17 04:02:10;;;;;;;22.75;11.57;;;;;;;3.59;60.75;101101.66;4385473;32;34024;-84
2022/03/17 04:04:40;;;;;;;21.17;10.93;;;;;;;3.43;61.01;101099.81;4360836;32;34356;-84
2022/03/17 04:07:10;;;;;;;19.20;11.25;;;;;;;3.64;60.17;101093.84;4373133;32;33896;-84
2022/03/17 04:09:41;;;;;;;22.35;11.45;;;;;;;3.56;60.29;101096.41;4372439;32;32908;-84
2022/03/17 04:12:10;;;;;;;19.55;11.00;;;;;;;3.37;60.79;101089.31;4385422;32;34372;-83
2022/03/17 04:14:39;;;;;;;19.67;11.18;;;;;;;3.27;61.17;101091.88;4373173;32;34019;-83
2022/03/17 04:17:06;;;;;;;17.30;11.55;;;;;;;3.40;60.73;101087.59;4383371;32;34731;-85
2022/03/17 04:19:34;;;;;;;18.95;10.98;;;;;;;3.50;60.41;101078.97;4385238;32;34435;-85
2022/03/17 04:22:02;;;;;;;19.05;11.85;;;;;;;3.14;61.48;101077.00;4385558;32;33473;-85
2022/03/17 04:24:30;;;;;;;23.12;11.98;;;;;;;3.21;61.87;101083.12;4384874;32;34480;-85
2022/03/17 04:26:58;;;;;;;19.77;11.50;;;;;;;3.10;62.32;101084.81;4385171;32;33129;-85
2022/03/17 04:29:28;;;;;;;26.58;12.90;;;;;;;2.90;63.17;101092.50;4381939;32;106277;-85
2022/03/17 04:31:55;;;;;;;26.60;14.00;;;;;;;3.14;63.00;101097.03;4372517;32;34737;-85
2022/03/17 04:34:23;;;;;;;22.25;12.27;;;;;;;3.18;62.57;101104.00;4372773;32;34818;-85
2022/03/17 04:36:51;;;;;;;24.55;12.65;;;;;;;3.57;61.28;101113.84;4372663;32;34207;-85
2022/03/17 04:39:18;;;;;;;17.85;11.50;;;;;;;3.36;61.43;101124.13;4385347;32;33724;-85
2022/03/17 04:41:46;;;;;;;22.23;11.50;;;;;;;3.31;61.06;101127.56;4372650;32;34190;-85
2022/03/17 04:44:14;;;;;;;22.45;11.68;;;;;;;3.31;60.97;101127.56;4372985;32;32821;-85
2022/03/17 04:46:42;;;;;;;19.42;10.63;;;;;;;3.28;61.07;101138.03;4360451;32;32906;-86
2022/03/17 04:49:10;;;;;;;22.48;11.90;;;;;;;3.46;60.42;101136.38;4385459;32;32496;-85
2022/03/17 04:51:38;;;;;;;19.75;11.93;;;;;;;3.14;61.03;101134.44;4384900;32;34136;-85
2022/03/17 04:54:06;;;;;;;20.33;12.07;;;;;;;3.26;60.63;101137.12;4372665;32;33601;-85
2022/03/17 04:56:33;;;;;;;18.42;11.32;;;;;;;2.73;62.80;101132.31;4360181;32;34330;-85
2022/03/17 04:59:01;;;;;;;23.77;12.57;;;;;;;3.17;61.58;101139.66;4372479;32;33961;-85
2022/03/17 05:01:29;;;;;;;21.90;13.52;;;;;;;3.04;61.81;101146.53;4372534;32;33909;-85
2022/03/17 05:03:57;;;;;;;21.05;12.57;;;;;;;3.26;61.46;101141.47;4372606;32;33412;-83
2022/03/17 05:06:24;;;;;;;26.37;12.85;;;;;;;3.46;60.77;101146.81;4372622;32;32643;-83
2022/03/17 05:08:52;;;;;;;22.05;12.40;;;;;;;3.18;61.12;101154.47;4384570;32;33371;-83
2022/03/17 05:11:20;;;;;;;19.23;11.85;;;;;;;3.22;60.98;101153.62;4359901;32;34409;-83
2022/03/17 05:13:48;;;;;;;27.23;12.48;;;;;;;3.22;60.95;101155.34;4384587;32;33611;-84
2022/03/17 05:16:16;;;;;;;32.67;13.85;;;;;;;3.06;61.32;101163.06;4384889;32;32883;-85
2022/03/17 05:18:44;;;;;;;27.45;12.80;;;;;;;2.96;61.83;101162.97;4372397;32;32883;-84
2022/03/17 05:21:12;;;;;;;23.80;12.68;;;;;;;2.74;64.41;101186.22;4384479;32;33361;-83
2022/03/17 05:23:40;;;;;;;23.17;12.55;;;;;;;3.41;61.79;101191.19;4360020;32;33656;-83
2022/03/17 05:26:08;;;;;;;23.12;11.88;;;;;;;3.22;61.38;101194.50;4384535;32;34343;-83
2022/03/17 05:28:36;;;;;;;24.87;12.93;;;;;;;3.17;60.72;101201.44;4372004;32;34409;-84
2022/03/17 05:31:03;;;;;;;23.48;13.65;;;;;;;3.04;61.18;101210.91;4359584;32;34962;-85
2022/03/17 05:33:31;;;;;;;21.35;12.20;;;;;;;3.08;61.35;101204.81;4372111;32;33482;-85
2022/03/17 05:35:59;;;;;;;24.67;13.15;;;;;;;2.59;62.77;101199.09;4370892;32;33969;-85
2022/03/17 05:38:27;;;;;;;23.02;12.63;;;;;;;3.01;62.05;101208.25;4373717;32;33047;-85
2022/03/17 05:40:55;;;;;;;22.73;12.55;;;;;;;2.88;62.66;101214.19;4373864;32;33696;-85
2022/03/17 05:43:23;;;;;;;26.92;14.68;;;;;;;2.80;63.20;101219.31;4385917;32;34264;-85
2022/03/17 05:45:51;;;;;;;28.85;14.15;;;;;;;2.97;62.85;101224.72;4373378;32;33889;-83
2022/03/17 05:48:19;;;;;;;29.08;14.75;;;;;;;3.33;62.22;101230.31;4373975;32;34804;-84
2022/03/17 05:50:47;;;;;;;29.52;15.52;;;;;;;3.51;61.89;101233.91;4373335;32;33902;-84
2022/03/17 05:53:16;;;;;;;30.15;16.55;;;;;;;3.52;62.04;101246.13;4373668;32;32873;-84
2022/03/17 05:55:44;;;;;;;38.13;17.23;;;;;;;3.77;61.76;101236.72;4373815;32;32599;-85
2022/03/17 05:58:12;;;;;;;30.40;14.93;;;;;;;3.71;61.73;101236.69;4360894;32;32556;-84
2022/03/17 06:00:40;;;;;;;28.48;15.65;;;;;;;3.71;61.47;101245.41;4361512;32;34603;-85
2022/03/17 06:03:08;;;;;;;32.50;16.67;;;;;;;3.62;61.99;101242.72;4385913;32;33439;-86
2022/03/17 06:05:35;;;;;;;34.00;17.23;;;;;;;3.47;63.00;101246.09;4373466;32;35470;-86
2022/03/17 06:08:09;;;;;;;52.75;21.73;;;;;;;3.50;63.21;101248.69;4383139;32;33832;-84
2022/03/17 06:10:38;;;;;;;66.45;26.52;;;;;;;3.76;62.82;101258.50;4372700;32;34501;-83
2022/03/17 06:13:06;;;;;;;82.53;27.87;;;;;;;4.16;61.90;101249.16;4373495;32;33373;-85
2022/03/17 06:15:34;;;;;;;59.85;23.62;;;;;;;4.22;61.78;101246.56;4361759;32;33366;-84
2022/03/17 06:18:04;;;;;;;55.33;23.12;;;;;;;4.73;60.89;101250.28;4385970;32;32598;-85
2022/03/17 06:20:35;;;;;;;46.25;23.02;;;;;;;4.77;61.13;101249.44;4385530;32;34221;-84
2022/03/17 06:23:05;;;;;;;46.45;20.52;;;;;;;5.06;61.13;101256.50;4373156;32;33579;-84
2022/03/17 06:25:34;;;;;;;38.83;19.70;;;;;;;4.92;61.37;101256.47;4385298;32;33762;-84
2022/03/17 06:28:08;;;;;;;35.40;19.62;;;;;;;5.43;60.44;101259.16;4378324;32;34776;-87
2022/03/17 06:30:36;;;;;;;32.97;18.87;;;;;;;5.34;60.67;101266.12;4378181;32;34545;-87
2022/03/17 06:33:05;;;;;;;41.42;19.35;;;;;;;5.77;59.95;101271.37;4373563;32;31782;-86
2022/03/17 06:35:33;;;;;;;34.20;18.58;;;;;;;5.77;59.78;101278.38;4385582;32;34324;-87
2022/03/17 06:38:04;;;;;;;31.83;18.27;;;;;;;6.04;59.38;101274.91;4385992;32;33934;-87
2022/03/17 06:40:35;;;;;;;30.67;15.90;;;;;;;6.07;59.31;101267.00;4360882;32;33277;-87
2022/03/17 06:43:03;;;;;;;30.33;15.13;;;;;;;6.23;57.24;101260.87;4373485;32;32766;-87
2022/03/17 06:45:33;;;;;;;31.55;17.50;;;;;;;6.55;55.24;101255.53;4368000;32;33002;-87
2022/03/17 06:48:01;;;;;;;32.00;17.30;;;;;;;6.79;54.31;101261.53;4372939;32;32563;-87
2022/03/17 06:50:30;;;;;;;30.12;14.68;;;;;;;7.27;52.01;101262.16;4372644;32;34215;-87
2022/03/17 06:52:57;;;;;;;30.10;15.60;;;;;;;7.51;49.51;101258.47;4362507;32;32963;-86
2022/03/17 06:55:28;;;;;;;30.80;14.15;;;;;;;7.32;48.56;101269.09;4385669;32;33512;-87
2022/03/17 06:57:55;;;;;;;27.23;13.75;;;;;;;7.91;48.06;101265.09;4360541;32;33916;-87
2022/03/17 07:00:23;;;;;;;34.22;14.95;;;;;;;8.34;46.57;101269.06;4373075;32;34745;-87
2022/03/17 07:02:51;;;;;;;29.25;14.48;;;;;;;8.21;45.38;101268.31;4385855;32;33294;-89
2022/03/17 07:05:19;;;;;;;27.67;15.73;;;;;;;7.78;45.50;101276.63;4373486;32;35454;-89
2022/03/17 07:07:47;;;;;;;24.83;14.40;;;;;;;7.68;45.75;101280.22;4374338;32;33445;-89
2022/03/17 07:10:17;;;;;;;33.28;15.45;;;;;;;8.05;45.58;101282.53;4372925;32;33511;-90
2022/03/17 07:12:47;;;;;;;38.80;14.30;;;;;;;7.81;45.88;101289.75;4373933;32;34188;-90
2022/03/17 07:15:15;;;;;;;24.40;14.70;;;;;;;8.13;46.62;101271.03;4373533;32;32254;-89
2022/03/17 07:17:43;;;;;;;23.23;14.85;;;;;;;8.38;45.90;101269.03;4385525;32;34292;-89
2022/03/17 07:20:12;;;;;;;24.30;13.98;;;;;;;8.40;45.22;101269.91;4373518;32;34689;-90
2022/03/17 07:22:42;;;;;;;32.40;14.45;;;;;;;8.36;45.34;101268.19;4361876;32;33054;-89
2022/03/17 07:25:11;;;;;;;25.67;14.63;;;;;;;8.70;44.89;101267.81;4373630;32;33990;-90
2022/03/17 07:27:41;;;;;;;31.45;14.85;;;;;;;8.85;44.91;101272.00;4361290;32;33357;-88
2022/03/17 07:30:15;;;;;;;28.95;15.38;;;;;;;8.94;44.40;101272.75;4372777;32;32225;-89
2022/03/17 07:32:42;;;;;;;27.05;15.18;;;;;;;8.66;44.92;101276.63;4372529;32;32306;-88
2022/03/17 07:35:10;;;;;;;34.83;15.18;;;;;;;8.92;44.65;101269.25;4373255;32;34544;-89
2022/03/17 07:37:39;;;;;;;29.12;16.60;;;;;;;9.06;45.07;101271.69;4372667;32;32606;-88
2022/03/17 07:40:07;;;;;;;26.45;15.43;;;;;;;9.20;44.73;101268.84;4385346;32;33891;-89
2022/03/17 07:42:35;;;;;;;28.67;15.02;;;;;;;8.91;44.95;101277.16;4373302;32;33618;-87
2022/03/17 07:45:11;;;;;;;24.95;14.13;;;;;;;9.42;44.35;101272.06;4372838;32;33747;-88
2022/03/17 07:47:54;;;;;;;27.55;13.30;;;;;;;9.21;44.73;101273.25;4372344;32;32634;-88
2022/03/17 07:50:21;;;;;;;27.77;14.93;;;;;;;9.63;43.26;101266.44;4373061;32;35511;-88
2022/03/17 07:52:49;;;;;;;24.45;12.73;;;;;;;9.13;44.23;101272.50;4360154;32;32727;-88
2022/03/17 07:55:17;;;;;;;27.50;14.00;;;;;;;9.11;44.66;101280.41;4373412;32;34355;-88
2022/03/17 07:57:45;;;;;;;36.63;18.15;;;;;;;8.64;45.54;101273.13;4373327;32;33807;-88
2022/03/17 08:00:13;;;;;;;23.58;14.23;;;;;;;9.22;44.59;101278.50;4384528;32;34231;-88
2022/03/17 08:02:42;;;;;;;30.90;15.18;;;;;;;9.21;44.70;101286.44;4373390;32;33778;-88
2022/03/17 08:05:11;;;;;;;27.17;15.50;;;;;;;8.86;44.77;101285.13;4372292;32;33424;-87
2022/03/17 08:07:39;;;;;;;31.70;14.93;;;;;;;9.16;44.99;101288.25;4373657;32;33900;-88
2022/03/17 08:10:08;;;;;;;26.67;16.00;;;;;;;9.11;45.13;101282.16;4385474;32;33723;-88
2022/03/17 08:12:36;;;;;;;30.55;16.70;;;;;;;9.13;44.88;101283.03;4386050;32;33628;-88
2022/03/17 08:15:05;;;;;;;27.77;16.08;;;;;;;9.64;44.10;101275.25;4384673;32;33545;-87
2022/03/17 08:17:33;;;;;;;26.37;15.57;;;;;;;9.63;44.26;101289.28;4385242;32;33932;-88
2022/03/17 08:20:05;;;;;;;27.98;16.50;;;;;;;9.34;45.32;101290.63;4372826;32;34400;-88
2022/03/17 08:22:34;;;;;;;35.95;15.43;;;;;;;9.73;44.55;101285.59;4383045;32;34079;-88
2022/03/17 08:25:03;;;;;;;25.00;15.23;;;;;;;10.01;45.15;101297.44;4359404;32;32394;-87
2022/03/17 08:27:30;;;;;;;28.50;16.50;;;;;;;10.25;43.94;101287.38;4372885;32;33933;-84
2022/03/17 08:29:59;;;;;;;24.40;15.48;;;;;;;10.71;43.04;101283.84;4384567;32;34124;-84
2022/03/17 08:32:29;;;;;;;28.33;15.40;;;;;;;10.52;42.94;101294.75;4371332;32;33281;-85
2022/03/17 08:34:57;;;;;;;28.75;15.35;;;;;;;9.69;44.73;101291.84;4370784;32;33819;-85
2022/03/17 08:37:25;;;;;;;25.58;15.57;;;;;;;10.25;44.05;101290.91;4371227;32;35499;-85
2022/03/17 08:39:52;;;;;;;29.85;16.05;;;;;;;10.68;44.19;101299.72;4372524;32;34101;-85
2022/03/17 08:42:20;;;;;;;28.98;15.63;;;;;;;11.07;41.82;101313.03;4372464;32;32760;-85
2022/03/17 08:44:48;;;;;;;28.35;15.15;;;;;;;10.78;43.20;101301.31;4355495;32;34151;-85
2022/03/17 08:50:03;;;;;;;30.30;17.48;;;;;;;11.13;41.50;101302.31;4359443;32;33650;-85
2022/03/17 08:52:31;;;;;;;30.08;15.75;;;;;;;10.74;42.67;101300.50;4370721;32;32601;-85
2022/03/17 08:54:59;;;;;;;26.20;15.43;;;;;;;11.27;41.97;101310.81;4382261;32;35648;-85
2022/03/17 08:57:27;;;;;;;27.27;15.10;;;;;;;10.90;42.43;101300.16;4384416;32;33607;-85
2022/03/17 08:59:54;;;;;;;30.52;16.58;;;;;;;10.85;42.37;101313.47;4384034;32;34049;-85
2022/03/17 09:02:23;;;;;;;27.92;15.55;;;;;;;11.45;41.37;101304.25;4384431;32;33038;-85
2022/03/17 09:04:51;;;;;;;23.80;14.68;;;;;;;11.15;42.99;101321.66;4384717;32;34774;-85
2022/03/17 09:07:18;;;;;;;31.62;16.80;;;;;;;10.93;42.40;101316.84;4372901;32;33900;-86
2022/03/17 09:09:46;;;;;;;24.70;14.68;;;;;;;11.41;42.03;101326.38;4373123;32;34267;-85
2022/03/17 09:12:14;;;;;;;35.97;17.30;;;;;;;11.36;41.45;101315.91;4369055;32;33205;-85
2022/03/17 09:14:44;;;;;;;27.10;15.85;;;;;;;10.96;41.68;101318.53;4384538;32;34343;-85
2022/03/17 09:17:11;;;;;;;28.27;16.23;;;;;;;11.05;41.61;101325.41;4386675;32;33871;-85
2022/03/17 09:19:39;;;;;;;28.65;15.05;;;;;;;10.84;41.76;101322.31;4374158;32;35026;-86
2022/03/17 09:22:08;;;;;;;27.73;15.95;;;;;;;11.02;42.29;101321.94;4385653;32;33172;-85
2022/03/17 09:24:37;;;;;;;33.22;16.20;;;;;;;11.29;41.04;101324.87;4360106;32;33605;-85
2022/03/17 09:27:05;;;;;;;29.02;16.50;;;;;;;11.20;41.58;101323.31;4360353;32;33424;-85
2022/03/17 09:29:33;;;;;;;31.45;16.98;;;;;;;10.76;42.16;101324.25;4386119;32;34150;-85
2022/03/17 09:32:00;;;;;;;29.37;15.90;;;;;;;10.42;42.42;101332.81;4386058;32;33469;-86
2022/03/17 09:34:31;;;;;;;27.13;15.95;;;;;;;10.64;43.95;101335.06;4373736;32;33591;-85
2022/03/17 09:36:59;;;;;;;31.17;16.70;;;;;;;11.03;41.20;101328.97;4373671;32;33314;-85
2022/03/17 09:40:01;;;;;;;27.98;15.77;;;;;;;11.33;40.57;101326.53;4377456;32;33986;-85
2022/03/17 09:42:22;;;;;;;30.27;16.52;;;;;;;11.45;40.36;101326.28;4381541;32;33443;-86
2022/03/17 09:44:54;;;;;;;31.00;15.55;;;;;;;11.13;41.21;101329.63;4364636;32;33628;-86
2022/03/17 09:47:24;;;;;;;29.05;16.23;;;;;;;11.21;42.16;101327.69;4384630;32;34361;-86
2022/03/17 09:49:54;;;;;;;26.17;15.77;;;;;;;11.73;40.28;101323.84;4372645;32;34060;-87
2022/03/17 09:52:22;;;;;;;29.55;16.95;;;;;;;11.60;39.57;101326.81;4373877;32;34349;-84
2022/03/17 09:54:52;;;;;;;31.35;16.70;;;;;;;11.44;40.24;101327.19;4374008;32;33949;-85
2022/03/17 09:57:20;;;;;;;27.02;17.12;;;;;;;11.61;39.79;101325.91;4361703;32;33319;-87
2022/03/17 09:59:50;;;;;;;25.58;14.93;;;;;;;11.92;40.06;101324.31;4374152;32;34709;-87
2022/03/17 10:02:18;;;;;;;30.95;15.80;;;;;;;12.15;39.23;101320.19;4373764;32;32594;-86
2022/03/17 10:04:48;;;;;;;30.35;16.87;;;;;;;11.37;40.44;101320.28;4374213;32;34590;-87
2022/03/17 10:07:18;;;;;;;32.08;17.23;;;;;;;11.59;40.66;101314.50;4361608;32;34696;-87
2022/03/17 10:09:45;;;;;;;31.87;16.08;;;;;;;11.78;39.91;101318.44;4386690;32;34160;-88
2022/03/17 10:12:17;;;;;;;27.37;18.00;;;;;;;11.53;40.30;101319.00;4386328;32;33993;-88
2022/03/17 10:14:52;;;;;;;31.43;17.57;;;;;;;11.77;40.49;101321.97;4386383;32;34036;-86
2022/03/17 10:17:31;;;;;;;28.30;17.73;;;;;;;12.04;39.31;101310.75;4386286;32;34100;-87
2022/03/17 10:20:28;;;;;;;29.95;16.67;;;;;;;12.43;38.59;101309.72;4361748;32;32773;-86
2022/03/17 10:22:57;;;;;;;27.60;17.35;;;;;;;12.31;38.71;101303.00;4370733;32;33208;-83
2022/03/17 10:25:27;;;;;;;27.90;17.42;;;;;;;12.66;38.12;101309.09;4362904;32;34330;-83
2022/03/17 10:27:56;;;;;;;27.67;17.05;;;;;;;13.11;37.17;101306.03;4362951;32;34734;-83
2022/03/17 10:30:30;;;;;;;29.23;16.00;;;;;;;12.85;38.73;101294.37;4386257;32;35150;-82
2022/03/17 10:33:03;;;;;;;27.05;17.08;;;;;;;12.46;38.04;101307.00;4371203;32;33324;-82
2022/03/17 10:35:35;;;;;;;30.58;17.70;;;;;;;12.76;38.64;101305.25;4374416;32;33395;-82
2022/03/17 10:38:18;;;;;;;28.42;16.27;;;;;;;12.75;37.86;101303.53;4373251;32;35501;-82
2022/03/17 10:41:04;;;;;;;26.42;16.48;;;;;;;12.44;38.61;101309.69;4372631;32;33352;-82
2022/03/17 10:43:33;;;;;;;31.37;16.80;;;;;;;12.39;38.42;101306.31;4385196;32;33722;-82
2022/03/17 10:46:11;;;;;;;34.22;19.33;;;;;;;12.86;37.89;101308.50;4384847;32;33605;-82
2022/03/17 10:49:05;;;;;;;31.35;16.92;;;;;;;12.92;38.73;101303.91;4373355;32;34443;-82
2022/03/17 10:51:41;;;;;;;31.67;16.15;;;;;;;13.47;36.13;101304.91;4383876;32;33477;-81
2022/03/17 10:54:10;;;;;;;28.58;17.77;;;;;;;13.10;36.61;101306.91;4347991;32;35345;-82
2022/03/17 10:56:39;;;;;;;27.55;17.52;;;;;;;12.39;39.93;101321.31;4385849;32;33732;-82
2022/03/17 10:59:07;;;;;;;30.23;16.25;;;;;;;12.93;36.42;101312.75;4385605;32;34770;-82
2022/03/17 11:01:47;;;;;;;36.00;17.90;;;;;;;12.37;37.51;101318.72;4382259;32;34016;-81
2022/03/17 11:04:15;;;;;;;27.92;19.00;;;;;;;12.77;37.28;101317.59;4358837;32;33882;-82
2022/03/17 11:06:43;;;;;;;27.98;16.87;;;;;;;12.18;39.09;101330.69;4359773;32;33202;-82
2022/03/17 11:09:11;;;;;;;28.55;17.98;;;;;;;12.52;38.82;101328.03;4373109;32;33240;-82
2022/03/17 11:11:38;;;;;;;27.23;16.62;;;;;;;12.94;38.71;101320.63;4373343;32;32742;-82
2022/03/17 11:14:06;;;;;;;27.42;15.90;;;;;;;12.84;38.29;101324.47;4385372;32;34406;-82
2022/03/17 11:16:43;;;;;;;25.48;15.93;;;;;;;12.61;38.09;101325.13;4384191;32;35707;-82
2022/03/17 11:19:14;;;;;;;29.20;17.60;;;;;;;12.47;38.07;101330.78;4371905;32;34787;-82
2022/03/17 11:21:50;;;;;;;31.02;16.45;;;;;;;12.49;39.19;101328.13;4361241;32;34498;-82
2022/03/17 11:24:19;;;;;;;35.65;18.30;;;;;;;13.13;38.00;101322.75;4384819;32;34395;-82
2022/03/17 11:26:47;;;;;;;32.30;16.75;;;;;;;13.18;38.28;101332.31;4361201;32;34787;-82
2022/03/17 11:29:24;;;;;;;26.75;15.45;;;;;;;13.07;37.83;101332.63;4360877;32;34347;-82
2022/03/17 11:31:57;;;;;;;20.73;14.70;;;;;;;13.49;37.72;101332.28;4383896;32;33789;-82
2022/03/17 11:34:47;;;;;;;;;;;;;;;13.02;39.44;101323.06;4385673;32;33018;-83
2022/03/17 11:37:26;;;;;;;25.55;14.55;;;;;;;13.17;37.83;101332.34;4397732;32;33276;-82
2022/03/17 11:40:15;;;;;;;26.73;16.05;;;;;;;13.13;37.66;101322.75;4385000;32;33610;-82